Tiempo atmosférico en la estación meteorológica de Azpeitia, Gipuzkoa (180 m.)



Fecha
DESCASC
Temp. máxima en grados centígrados (hora)
DESCASC
Temp. mínima en grados centígrados (hora)
DESCASC
Temp. media en grados centígrados
DESCASC
Racha de viento máxima en m/sg (hora)
DESCASC
Velocidad máxima media en intervalos de 10 minutos(hora)
DESCASC
Precipitaciones diarias en mm
DESCASC
Precipitaciones de 00:00 a 06:00 en mm
DESCASC
Precipitaciones de 06:00 a 12:00 en mm
DESCASC
Precipitaciones de 12:00 a 18:00 en mm
DESCASC
Precipitaciones de 18:00 a 24:00 en mm
DESCASC
25-02-2021 16.8 (14:40) 11.4 (23:40) 14.1 8.06 (00:10) 3.06 (01:10) 0 0 0 0 0
24-02-2021 19.2 (16:30) 13.3 (08:20) 16.3 12.5 (03:00) 5 (12:10) 0 0 0 0 0
23-02-2021 17.8 (16:10) 5.9 (02:50) 11.8 11.11 (14:10) 4.44 (12:50) 0.2 0 0.2 0 0
22-02-2021 10.5 (15:50) 6.9 (23:50) 8.7 8.89 (00:40) 4.72 (00:40) 38.8 18.6 18.2 2 0
21-02-2021 16.9 (12:50) 9 (00:00) 12.9 14.72 (00:40) 5.28 (00:40) 2.6 0 0 0 2.6
20-02-2021 21.8 (17:00) 15.3 (00:00) 18.5 14.44 (02:50) 5 (03:30) 0 0 0 0 0
19-02-2021 20.6 (14:50) 8.7 (00:00) 14.7 12.22 (02:50) 4.17 (02:50) 0 0 0 0 0
18-02-2021 19.4 (12:40) 8.7 (00:00) 14 11.11 (12:10) 5 (12:10) 0 0 0 0 0
17-02-2021 19 (14:50) 6 (00:00) 12.5 12.78 (14:00) 3.89 (14:10) 0 0 0 0 0
16-02-2021 18.1 (14:40) 8.3 (00:00) 13.2 15 (13:10) 7.5 (13:30) 0 0 0 0 0
15-02-2021 15.5 (14:20) 9.8 (00:00) 12.7 11.39 (20:30) 4.17 (15:20) 0 0 0 0 0
14-02-2021 16.8 (15:00) 4.2 (00:00) 10.5 11.39 (14:00) 4.44 (14:00) 0 0 0 0 0
13-02-2021 15.2 (16:30) 6 (00:00) 10.6 3.89 (17:40) 1.94 (09:10) 0 0 0 0 0
12-02-2021 16.2 (05:00) 10.5 (00:00) 13.4 10.28 (13:00) 4.72 (13:00) 21.2 0.2 8.8 12.2 0
11-02-2021 18.9 (14:50) 4.3 (00:00) 11.6 5.28 (17:50) 2.22 (17:20) 0 0 0 0 0
10-02-2021 11.1 (16:50) 7.6 (00:00) 9.4 8.33 (11:50) 3.33 (11:50) 0.4 0 0.2 0.2 0
09-02-2021 13.1 (12:10) 7.5 (00:00) 10.3 11.39 (08:30) 3.89 (12:20) 2.2 0 0 2.2 0
08-02-2021 15 (15:10) 7.9 (00:00) 11.5 5.83 (02:40) 2.22 (15:50) 5.8 0.6 4.4 0.8 0
07-02-2021 11.5 (16:10) 4.8 (00:00) 8.2 5.83 (20:20) 2.5 (00:30) 1.6 0.4 0 0 1.2
06-02-2021 10.7 (12:10) 6 (00:00) 8.3 15.83 (13:40) 7.22 (13:20) 29.4 0 2.6 22.6 4.2
05-02-2021 12.4 (13:10) 10 (00:00) 11.2 4.72 (17:30) 2.22 (13:10) 0.8 0 0.8 0 0
04-02-2021 16.4 (15:50) 11 (00:00) 13.7 6.11 (22:10) 3.89 (22:10) 0.8 0.4 0 0 0.4
03-02-2021 18.7 (13:40) 12.3 (00:00) 15.5 17.5 (05:40) 5 (03:50) 0.4 0 0 0 0.4
02-02-2021 18.8 (14:10) 9.8 (00:00) 14.3 10.83 (23:50) 5 (13:50) 0.4 0 0 0.4 0
01-02-2021 14.8 (17:20) 11.5 (00:00) 13.2 16.11 (08:30) 6.94 (07:30) 4.2 1 0 0 3.2
31-01-2021 14.7 (16:40) 9.3 (00:00) 12 17.22 (02:50) 6.39 (02:00) 4.2 0.8 2.4 1 0
30-01-2021 17.2 (00:10) 9.1 (00:00) 13.2 12.78 (01:40) 4.17 (23:40) 4 0.8 0.6 2.2 0.4

Gráficas

Temp. máximas Temp. mínimas Temp. medias Precipitaciones Rachas de viento máximas Velocidades máximas media en intervalos de 10 minutos

Datos horarios

Fecha y hora oficial Temperatura (ºC) Velocidad del viento (km/h) Dirección del viento Racha (km/h) Dirección de racha Precipitación (mm) Presión (hPa) Tendencia (hPa) Humedad (%)
2021-02-28 23:00:00 12.3 12 Sudeste 37 Sudeste 0 -- -- 41
2021-02-28 22:00:00 10 3 Este 6 Norte 0 -- -- 70
2021-02-28 21:00:00 9.5 2 Este 6 Sudoeste 0 -- -- 73
2021-02-28 20:00:00 9.7 2 Sur 8 Sudeste 1.2 -- -- 76
2021-02-28 19:00:00 10.2 4 Sudoeste 6 Norte 0.4 -- -- 73
2021-02-28 18:00:00 10.6 3 Norte 8 Noroeste 0 -- -- 69
2021-02-28 17:00:00 10.7 0 Calma 5 Norte 0.4 -- -- 66
2021-02-28 16:00:00 11.2 2 Nordeste 6 Norte 0 -- -- 59
2021-02-28 15:00:00 10.5 3 Sur 5 Este 0.2 -- -- 64
2021-02-28 14:00:00 10.9 2 Este 6 Norte 0 -- -- 53
2021-02-28 13:00:00 10.5 3 Nordeste 7 Norte 0 -- -- 59
2021-02-28 12:00:00 9.5 3 Nordeste 9 Oeste 0 -- -- 64
2021-02-28 11:00:00 7.8 0 Calma 3 Norte 0 -- -- 75
2021-02-28 10:00:00 7 2 Nordeste 3 Este 0 -- -- 78
2021-02-28 09:00:00 6.5 2 Noroeste 5 Oeste 0 -- -- 79
2021-02-28 08:00:00 6 2 Sudoeste 4 Sudeste 0 -- -- 79
2021-02-28 07:00:00 5.7 0 Calma 9 Sudeste 0 -- -- 79
2021-02-28 06:00:00 5.5 3 Sudeste 9 Este 0 -- -- 78
2021-02-28 05:00:00 6.3 2 Sudoeste 5 Sudoeste 0 -- -- 74
2021-02-28 04:00:00 6.7 0 Calma 5 Sudeste 0 -- -- 74
2021-02-28 03:00:00 7.3 2 Sudeste 5 Sudoeste 0 -- -- 70
2021-02-28 02:00:00 7 2 Sur 5 Sudeste 0 -- -- 70
2021-02-28 01:00:00 8.1 4 Sudoeste 6 Sudeste 0 -- -- 65
2021-02-28 00:00:00 8.1 2 Sur 6 Sudeste 0 -- -- 65
2021-02-27 23:00:00 8 2 Sur 8 Sudoeste 0 -- -- 64
2021-02-27 22:00:00 8.1 4 Sudoeste 7 Sudoeste 0 -- -- 62
2021-02-27 21:00:00 8.1 2 Oeste 4 Sur 0 -- -- 60
2021-02-27 20:00:00 7.7 4 Sur 8 Sur 0 -- -- 59
2021-02-27 19:00:00 8.3 4 Este 18 Norte 0 -- -- 52
2021-02-27 18:00:00 9.7 5 Nordeste 17 Nordeste 0 -- -- 46
2021-02-27 17:00:00 10.3 7 Nordeste 21 Nordeste 0 -- -- 45
2021-02-27 16:00:00 11.6 8 Nordeste 19 Nordeste 0 -- -- 45
2021-02-27 15:00:00 12.7 6 Nordeste 15 Noroeste 0 -- -- 48
2021-02-27 14:00:00 10.8 5 Nordeste 22 Nordeste 0 -- -- 60
2021-02-27 13:00:00 11.8 7 Nordeste 19 Este 0 -- -- 57
2021-02-27 12:00:00 11.8 4 Nordeste 10 Norte 0 -- -- 62
2021-02-27 11:00:00 9.7 5 Norte 15 Noroeste 0 -- -- 76
2021-02-27 10:00:00 10.1 8 Norte 19 Nordeste 0 -- -- 75
2021-02-27 09:00:00 10.4 3 Nordeste 12 Norte 0 -- -- 77
2021-02-27 08:00:00 10.3 4 Nordeste 12 Este 0 -- -- 77
2021-02-27 07:00:00 10.1 3 Nordeste 6 Sudoeste 0 -- -- 78
2021-02-27 06:00:00 10 3 Este 7 Norte 0 -- -- 77
2021-02-27 05:00:00 10.1 3 Oeste 8 Norte 0 -- -- 75
2021-02-27 04:00:00 10.1 4 Oeste 6 Sudoeste 0 -- -- 75
2021-02-27 03:00:00 10.3 0 Calma 8 Nordeste 0 -- -- 73
2021-02-27 02:00:00 10.3 3 Nordeste 10 Norte 0 -- -- 74
2021-02-27 01:00:00 10.4 4 Este 13 Nordeste 0 -- -- 75
2021-02-27 00:00:00 10.4 3 Sudeste 9 Nordeste 0 -- -- 75
2021-02-26 23:00:00 10.5 2 Norte 8 Norte 0 -- -- 75
2021-02-26 22:00:00 10.7 4 Este 8 Norte 0 -- -- 72
2021-02-26 21:00:00 10.7 2 Nordeste 8 Norte 0 -- -- 69
2021-02-26 20:00:00 10.8 3 Nordeste 9 Nordeste 0 -- -- 67
2021-02-26 19:00:00 11 4 Nordeste 13 Nordeste 0 -- -- 66
2021-02-26 18:00:00 11.4 5 Norte 14 Norte 0 -- -- 67
2021-02-26 17:00:00 11.7 4 Nordeste 15 Nordeste 0 -- -- 67
2021-02-26 16:00:00 11.8 5 Nordeste 17 Nordeste 0 -- -- 64
2021-02-26 15:00:00 12.6 5 Nordeste 14 Norte 0 -- -- 63
2021-02-26 14:00:00 12.1 3 Nordeste 14 Nordeste 0 -- -- 70
2021-02-26 13:00:00 11.7 3 Nordeste 13 Nordeste 0 -- -- 72
2021-02-26 12:00:00 11.7 4 Nordeste 12 Nordeste 0 -- -- 74
2021-02-26 11:00:00 11.7 3 Nordeste 11 Norte 0 -- -- 74
2021-02-26 10:00:00 11.1 4 Norte 10 Norte 0 -- -- 78
2021-02-26 09:00:00 10.7 3 Norte 8 Norte 0 -- -- 80
2021-02-26 08:00:00 10.5 3 Norte 9 Norte 0 -- -- 79
2021-02-26 07:00:00 10.7 4 Nordeste 10 Nordeste 0 -- -- 78
2021-02-26 06:00:00 10.8 3 Nordeste 11 Este 0 -- -- 77
2021-02-26 05:00:00 11 2 Sudeste 9 Norte 0 -- -- 77
2021-02-26 04:00:00 11.1 0 Calma 7 Nordeste 0 -- -- 76
2021-02-26 03:00:00 11.2 3 Nordeste 8 Norte 0 -- -- 76
2021-02-26 02:00:00 11.2 3 Nordeste 10 Norte 0 -- -- 76
2021-02-26 01:00:00 11.3 3 Norte 9 Norte 0 -- -- 74
2021-02-26 00:00:00 11.4 4 Oeste 6 Sudoeste 0 -- -- 72
2021-02-25 23:00:00 11.5 2 Nordeste 5 Nordeste 0 -- -- 70
2021-02-25 22:00:00 11.6 2 Sudoeste 7 Sudoeste 0 -- -- 68
2021-02-25 21:00:00 11.7 2 Norte 11 Nordeste 0 -- -- 69
2021-02-25 20:00:00 11.9 2 Norte 11 Nordeste 0 -- -- 68
2021-02-25 19:00:00 12.1 4 Nordeste 15 Nordeste 0 -- -- 66
2021-02-25 18:00:00 12.4 4 Nordeste 18 Norte 0 -- -- 66
2021-02-25 17:00:00 13 7 Nordeste 23 Norte 0 -- -- 61
2021-02-25 16:00:00 14.2 7 Nordeste 17 Noroeste 0 -- -- 54
2021-02-25 15:00:00 15.9 6 Nordeste 16 Sudoeste 0 -- -- 43
2021-02-25 14:00:00 16.5 7 Sudoeste 21 Sudoeste 0 -- -- 27
2021-02-25 13:00:00 15.6 6 Sudoeste 22 Sudoeste 0 -- -- 29
2021-02-25 12:00:00 14.8 6 Este 21 Este 0 -- -- 30
2021-02-25 11:00:00 13.7 8 Sudeste 26 Este 0 -- -- 33
2021-02-25 10:00:00 13.1 10 Sudeste 26 Sudeste 0 -- -- 32
2021-02-25 09:00:00 12.7 5 Este 21 Este 0 -- -- 33
2021-02-25 08:00:00 12.5 6 Sudeste 19 Sudeste 0 -- -- 33
2021-02-25 07:00:00 12.4 4 Sudoeste 18 Sur 0 -- -- 36
2021-02-25 06:00:00 12.5 5 Sur 21 Sur 0 -- -- 36
2021-02-25 05:00:00 13.1 7 Sur 25 Sudeste 0 -- -- 36
2021-02-25 04:00:00 13.6 7 Sur 21 Este 0 -- -- 40
2021-02-25 03:00:00 14.3 6 Sur 22 Sudeste 0 -- -- 40
2021-02-25 02:00:00 14.6 5 Sudeste 28 Este 0 -- -- 39
2021-02-25 01:00:00 14.8 6 Sudeste 29 Sur 0 -- -- 41
2021-02-25 00:00:00 14.9 7 Sur 15 Oeste 0 -- -- 39
2021-02-24 23:00:00 15.8 5 Sur 23 Sudeste 0 -- -- 37
2021-02-24 22:00:00 16.2 7 Este 39 Este 0 -- -- 35
2021-02-24 21:00:00 16.2 8 Sudeste 25 Sudeste 0 -- -- 37
2021-02-24 20:00:00 16.4 6 Sudeste 18 Este 0 -- -- 36
2021-02-24 19:00:00 16.9 6 Sudoeste 30 Este 0 -- -- 33
2021-02-24 18:00:00 18.1 9 Sudeste 23 Este 0 -- -- 29
2021-02-24 17:00:00 19.1 6 Sudeste 30 Sudeste 0 -- -- 26
2021-02-24 16:00:00 19.1 6 Sur 24 Este 0 -- -- 25
2021-02-24 15:00:00 18.7 9 Sudeste 34 Sudeste 0 -- -- 25
2021-02-24 14:00:00 18.4 10 Sudeste 34 Sudeste 0 -- -- 27
2021-02-24 13:00:00 17.6 15 Sudeste 39 Este 0 -- -- 29
2021-02-24 12:00:00 16.7 14 Sudeste 43 Este 0 -- -- 31
2021-02-24 11:00:00 15.7 17 Sudeste 39 Este 0 -- -- 33
2021-02-24 10:00:00 14.8 15 Sudeste 35 Sudeste 0 -- -- 36
2021-02-24 09:00:00 13.7 6 Norte 29 Sudeste 0 -- -- 39
2021-02-24 08:00:00 13.4 9 Sudeste 40 Sudeste 0 -- -- 39
2021-02-24 07:00:00 13.8 6 Sur 31 Sur 0 -- -- 36
2021-02-24 06:00:00 14.3 10 Sur 28 Sudeste 0 -- -- 36
2021-02-24 05:00:00 14.2 8 Sur 31 Sudoeste 0 -- -- 36
2021-02-24 04:00:00 14.3 9 Sur 38 Este 0 -- -- 38
2021-02-24 03:00:00 13.9 9 Norte 45 Sudeste 0 -- -- 41
2021-02-24 02:00:00 14 5 Sur 23 Este 0 -- -- 40
2021-02-24 01:00:00 14.2 6 Sudoeste 22 Sudeste 0 -- -- 38
2021-02-24 00:00:00 14.2 6 Sur 27 Sur 0 -- -- 37
2021-02-23 23:00:00 14.1 9 Sudoeste 23 Sudoeste 0 -- -- 37
2021-02-23 22:00:00 14.3 8 Sur 28 Sudeste 0 -- -- 38
2021-02-23 21:00:00 14.6 8 Sudeste 30 Sur 0 -- -- 36
2021-02-23 20:00:00 14.8 6 Sudoeste 33 Sudeste 0 -- -- 34
2021-02-23 19:00:00 15.1 7 Sudoeste 24 Sudeste 0 -- -- 30
2021-02-23 18:00:00 16.3 10 Sudeste 28 Sudeste 0 -- -- 27
2021-02-23 17:00:00 17.5 12 Sudeste 30 Sudeste 0 -- -- 19
2021-02-23 16:00:00 17.6 7 Sudeste 34 Este 0 -- -- 18
2021-02-23 15:00:00 17.2 9 Sur 40 Sudeste 0 -- -- 22
2021-02-23 14:00:00 16.1 10 Sudeste 37 Sudeste 0 -- -- 24
2021-02-23 13:00:00 15.1 11 Sudeste 38 Sudeste 0 -- -- 29
2021-02-23 12:00:00 14.3 10 Sudeste 36 Sudoeste 0 -- -- 33
2021-02-23 11:00:00 13.6 10 Sur 37 Sudeste 0 -- -- 37
2021-02-23 10:00:00 12.6 8 Sudeste 39 Sudeste 0.2 -- -- 40
2021-02-23 09:00:00 10.8 6 Sudoeste 21 Sudeste 0 -- -- 46
2021-02-23 08:00:00 10.2 5 Sudoeste 19 Oeste 0 -- -- 48
2021-02-23 07:00:00 9.9 6 Sudoeste 18 Sudeste 0 -- -- 52
2021-02-23 06:00:00 9.9 4 Sudeste 18 Sudoeste 0 -- -- 54
2021-02-23 05:00:00 9.4 5 Sudoeste 17 Sur 0 -- -- 61
2021-02-23 04:00:00 6.7 3 Sur 13 Sudoeste 0 -- -- 83
2021-02-23 03:00:00 5.9 6 Sudoeste 13 Sudoeste 0 -- -- 84
2021-02-23 02:00:00 6.3 4 Sudoeste 12 Sudoeste 0 -- -- 84
2021-02-23 01:00:00 6.1 3 Oeste 7 Oeste 0 -- -- 83
2021-02-23 00:00:00 6.9 2 Sudeste 8 Oeste 0 -- -- 82
2021-02-22 23:00:00 7.3 2 Sudeste 6 Sudoeste 0 -- -- 81
2021-02-22 22:00:00 8.3 3 Sur 6 Sudoeste 0 -- -- 81
2021-02-22 21:00:00 9 3 Sudoeste 6 Sudeste 0 -- -- 80
2021-02-22 20:00:00 9.3 2 Sur 5 Oeste 0 -- -- 79
2021-02-22 19:00:00 9.6 4 Sudoeste 7 Sudoeste 0 -- -- 76
2021-02-22 18:00:00 9.9 2 Sudoeste 7 Sur 0 -- -- 75
2021-02-22 17:00:00 10.1 3 Sudeste 6 Sudeste 0.4 -- -- 73
2021-02-22 16:00:00 10.5 3 Sudeste 11 Este 0 -- -- 71
2021-02-22 15:00:00 10 4 Este 7 Sudeste 0.2 -- -- 76
2021-02-22 14:00:00 9.7 5 Oeste 18 Oeste 0.2 -- -- 72
2021-02-22 13:00:00 9.2 5 Sudoeste 9 Sudoeste 1.2 -- -- 78
2021-02-22 12:00:00 8.6 2 Sur 5 Este 1.2 -- -- 80
2021-02-22 11:00:00 7.9 3 Este 6 Este 1.8 -- -- 82
2021-02-22 10:00:00 7.5 2 Sur 9 Sudoeste 1.6 -- -- 81
2021-02-22 09:00:00 7.3 3 Sudeste 11 Sudoeste 3.6 -- -- 80
2021-02-22 08:00:00 7.5 5 Sudoeste 13 Sudoeste 2.6 -- -- 78
2021-02-22 07:00:00 7.2 3 Sur 12 Sur 7.4 -- -- 80
2021-02-22 06:00:00 7.3 5 Sudoeste 14 Sudoeste 2 -- -- 77
2021-02-22 05:00:00 7.3 3 Sudeste 9 Sudoeste 3.6 -- -- 79
2021-02-22 04:00:00 7.4 3 Sur 15 Oeste 1.8 -- -- 79
2021-02-22 03:00:00 7.4 7 Sudoeste 15 Sudoeste 2.6 -- -- 78
2021-02-22 02:00:00 7.5 9 Sudoeste 22 Oeste 3.4 -- -- 77
2021-02-22 01:00:00 7.7 13 Oeste 32 Oeste 5.2 -- -- 76
2021-02-22 00:00:00 9 14 Oeste 24 Sudoeste 2.6 -- -- 73
2021-02-21 23:00:00 10 4 Norte 19 Nordeste 0 -- -- 74
2021-02-21 22:00:00 10.3 8 Norte 21 Nordeste 0 -- -- 73
2021-02-21 21:00:00 10.7 8 Nordeste 26 Nordeste 0 -- -- 70
2021-02-21 20:00:00 12.3 9 Nordeste 25 Nordeste 0 -- -- 61
2021-02-21 19:00:00 15.1 11 Sudeste 27 Sudeste 0 -- -- 32
2021-02-21 18:00:00 14.8 4 Nordeste 27 Oeste 0 -- -- 35
2021-02-21 17:00:00 14.9 9 Sudoeste 43 Oeste 0 -- -- 34
2021-02-21 16:00:00 15.1 8 Sudeste 37 Sudeste 0 -- -- 31
2021-02-21 15:00:00 15.7 12 Sur 32 Sudeste 0 -- -- 26
2021-02-21 14:00:00 16.2 10 Sudeste 30 Este 0 -- -- 19
2021-02-21 13:00:00 16.8 12 Sudeste 40 Sudeste 0 -- -- 15
2021-02-21 12:00:00 16.2 9 Sudeste 42 Este 0 -- -- 15
2021-02-21 11:00:00 15.4 15 Sudeste 53 Sudeste 0 -- -- 14
2021-02-21 10:00:00 15.5 9 Sudoeste 30 Sudoeste 0 -- -- 13
2021-02-21 09:00:00 14 9 Sur 34 Este 0 -- -- 18
2021-02-21 08:00:00 14 8 Sudeste 32 Sudeste 0 -- -- 19
2021-02-21 07:00:00 14.2 13 Sudeste 42 Sudeste 0 -- -- 18
2021-02-21 06:00:00 13.7 8 Sudeste 40 Sudeste 0 -- -- 20
2021-02-21 05:00:00 14 9 Sudeste 40 Sudeste 0 -- -- 18
2021-02-21 04:00:00 14.4 11 Sudeste 37 Sudeste 0 -- -- 17
2021-02-21 03:00:00 14.7 8 Este 27 Este 0 -- -- 19
2021-02-21 02:00:00 15.2 13 Sudeste 40 Sudeste 0 -- -- 18
2021-02-21 01:00:00 15.7 15 Sudeste 53 Este 0 -- -- 18
2021-02-21 00:00:00 16.5 14 Sudeste 51 Sudeste 0 -- -- 18
2021-02-20 23:00:00 17.2 10 Sudeste 33 Sudeste 0 -- -- 17
2021-02-20 22:00:00 17.7 8 Sudeste 31 Sudeste 0 -- -- 15
2021-02-20 21:00:00 18.1 11 Sudeste 34 Este 0 -- -- 14
2021-02-20 20:00:00 18.6 13 Sudeste 37 Este 0 -- -- 15
2021-02-20 19:00:00 19.3 8 Sur 36 Sudeste 0 -- -- 13
2021-02-20 18:00:00 20.5 12 Sudeste 38 Este 0 -- -- 7
2021-02-20 17:00:00 21.8 10 Sur 29 Este 0 -- -- 4
2021-02-20 16:00:00 21.2 13 Sur 38 Sudeste 0 -- -- 5
2021-02-20 15:00:00 21.5 8 Sudeste 41 Sudeste 0 -- -- 6
2021-02-20 14:00:00 20.9 15 Sudeste 44 Este 0 -- -- 4
2021-02-20 13:00:00 20.6 12 Sudeste 40 Este 0 -- -- 6
2021-02-20 12:00:00 19.5 14 Sudeste 39 Este 0 -- -- 8
2021-02-20 11:00:00 17.7 15 Sudeste 45 Sudeste 0 -- -- 11
2021-02-20 10:00:00 17 12 Sudeste 41 Sudeste 0 -- -- 12
2021-02-20 09:00:00 16.5 13 Sudeste 41 Este 0 -- -- 12
2021-02-20 08:00:00 15.8 13 Sudeste 36 Este 0 -- -- 14
2021-02-20 07:00:00 15.3 5 Noroeste 29 Este 0 -- -- 16
2021-02-20 06:00:00 15.8 11 Este 34 Este 0 -- -- 14
2021-02-20 05:00:00 16 9 Sudeste 28 Este 0 -- -- 13
2021-02-20 04:00:00 16.4 12 Sudeste 44 Sudeste 0 -- -- 13
2021-02-20 03:00:00 17 10 Sudeste 52 Sudeste 0 -- -- 13
2021-02-20 02:00:00 16.8 3 Norte 28 Sur 0 -- -- 14
2021-02-20 01:00:00 16.7 6 Nordeste 34 Este 0 -- -- 14
2021-02-20 00:00:00 16.8 8 Sur 32 Sur 0 -- -- 14
2021-02-19 23:00:00 17.1 8 Sudeste 26 Sudeste 0 -- -- 15
2021-02-19 22:00:00 17.6 9 Sur 25 Sudoeste 0 -- -- 15
2021-02-19 21:00:00 17.7 5 Sudeste 25 Sudeste 0 -- -- 16
2021-02-19 20:00:00 18.3 7 Sur 27 Este 0 -- -- 15
2021-02-19 19:00:00 18.3 4 Sur 18 Este 0 -- -- 17
2021-02-19 18:00:00 19.2 4 Sur 24 Este 0 -- -- 18
2021-02-19 17:00:00 20 7 Sudeste 30 Sudeste 0 -- -- 15
2021-02-19 16:00:00 20.5 8 Sudeste 30 Sudeste 0 -- -- 14
2021-02-19 15:00:00 20.5 8 Sudeste 35 Sudoeste 0 -- -- 12
2021-02-19 14:00:00 20 7 Sudeste 33 Sudoeste 0 -- -- 12
2021-02-19 13:00:00 19.7 9 Sudeste 23 Sudeste 0 -- -- 10
2021-02-19 12:00:00 18.8 9 Sudeste 31 Este 0 -- -- 14
2021-02-19 11:00:00 17.6 9 Sudeste 30 Sur 0 -- -- 17
2021-02-19 10:00:00 16.4 9 Este 43 Sudoeste 0 -- -- 20
2021-02-19 09:00:00 15.8 14 Sudoeste 34 Sudoeste 0 -- -- 20
2021-02-19 08:00:00 15.1 8 Sur 28 Sur 0 -- -- 23
2021-02-19 07:00:00 15.6 11 Sudoeste 36 Sur 0 -- -- 24
2021-02-19 06:00:00 15.6 10 Sur 33 Sur 0 -- -- 26
2021-02-19 05:00:00 15.9 14 Sur 31 Sudoeste 0 -- -- 27
2021-02-19 04:00:00 14.8 5 Sur 26 Sur 0 -- -- 33
2021-02-19 03:00:00 15.6 12 Sur 44 Sudoeste 0 -- -- 30
2021-02-19 02:00:00 15 12 Sudoeste 37 Sudoeste 0 -- -- 35
2021-02-19 01:00:00 9.7 6 Sur 23 Sur 0 -- -- 71
2021-02-19 00:00:00 8.7 2 Sudeste 8 Oeste 0 -- -- 75
2021-02-18 23:00:00 9.3 0 Calma 5 Sudoeste 0 -- -- 72
2021-02-18 22:00:00 9.7 2 Sur 5 Sudoeste 0 -- -- 71
2021-02-18 21:00:00 10 2 Sudoeste 6 Nordeste 0 -- -- 68
2021-02-18 20:00:00 10.7 3 Nordeste 10 Nordeste 0 -- -- 67
2021-02-18 19:00:00 10.8 4 Nordeste 16 Norte 0 -- -- 66
2021-02-18 18:00:00 11 6 Nordeste 15 Nordeste 0 -- -- 66
2021-02-18 17:00:00 11.3 6 Nordeste 21 Nordeste 0 -- -- 68
2021-02-18 16:00:00 11.4 6 Nordeste 26 Nordeste 0 -- -- 70
2021-02-18 15:00:00 12.1 9 Nordeste 27 Nordeste 0 -- -- 60
2021-02-18 14:00:00 15.5 8 Noroeste 35 Sudoeste 0 -- -- 40
2021-02-18 13:00:00 19 13 Oeste 40 Oeste 0 -- -- 8
2021-02-18 12:00:00 18.5 9 Sudoeste 26 Sur 0 -- -- 11
2021-02-18 11:00:00 15.1 4 Sudoeste 16 Sudeste 0 -- -- 28
2021-02-18 10:00:00 14.4 4 Sudoeste 15 Sur 0 -- -- 31
2021-02-18 09:00:00 14.5 5 Sur 20 Sur 0 -- -- 27
2021-02-18 08:00:00 14.1 5 Sur 23 Sudoeste 0 -- -- 30
2021-02-18 07:00:00 14.4 7 Sur 26 Sudoeste 0 -- -- 31
2021-02-18 06:00:00 14.5 8 Sur 27 Sudoeste 0 -- -- 34
2021-02-18 05:00:00 14.7 8 Sur 26 Sudoeste 0 -- -- 34
2021-02-18 04:00:00 14.8 8 Sudeste 27 Sudeste 0 -- -- 33
2021-02-18 03:00:00 15.2 7 Sudeste 24 Sudoeste 0 -- -- 33
2021-02-18 02:00:00 15.5 8 Sudoeste 27 Sur 0 -- -- 34
2021-02-18 01:00:00 15.6 8 Sudeste 36 Sudeste 0 -- -- 35
2021-02-18 00:00:00 15.8 11 Sudeste 36 Sudeste 0 -- -- 35
2021-02-17 23:00:00 15.7 8 Sudeste 25 Este 0 -- -- 37
2021-02-17 22:00:00 15.8 6 Sur 21 Este 0 -- -- 36
2021-02-17 21:00:00 15.7 4 Sudoeste 12 Este 0 -- -- 37
2021-02-17 20:00:00 15.8 4 Sur 12 Este 0 -- -- 37
2021-02-17 19:00:00 16.2 4 Este 22 Sudoeste 0 -- -- 38
2021-02-17 18:00:00 16.5 10 Sudoeste 27 Sudoeste 0 -- -- 36
2021-02-17 17:00:00 17.1 5 Sur 24 Sudeste 0 -- -- 33
2021-02-17 16:00:00 17.9 13 Sudoeste 32 Sudoeste 0 -- -- 26
2021-02-17 15:00:00 18.8 9 Sudoeste 30 Sur 0 -- -- 23
2021-02-17 14:00:00 18.5 12 Sudoeste 46 Sudoeste 0 -- -- 25
2021-02-17 13:00:00 17.3 3 Noroeste 26 Sudoeste 0 -- -- 31
2021-02-17 12:00:00 17.3 9 Sur 21 Sur 0 -- -- 30
2021-02-17 11:00:00 15.7 6 Oeste 31 Oeste 0 -- -- 38
2021-02-17 10:00:00 14.3 10 Sudoeste 25 Sudoeste 0 -- -- 39
2021-02-17 09:00:00 11 4 Sudoeste 16 Sudoeste 0 -- -- 59
2021-02-17 08:00:00 9.6 4 Sur 8 Sudoeste 0 -- -- 70
2021-02-17 07:00:00 8.4 3 Este 9 Sudoeste 0 -- -- 80
2021-02-17 06:00:00 6.8 6 Sur 14 Oeste 0 -- -- 84
2021-02-17 05:00:00 6.2 2 Sudeste 7 Oeste 0 -- -- 83
2021-02-17 04:00:00 6.4 0 Calma 6 Sudoeste 0 -- -- 82
2021-02-17 03:00:00 6.7 2 Sudeste 4 Sudeste 0 -- -- 82
2021-02-17 02:00:00 7.1 0 Calma 4 Sudoeste 0 -- -- 80
2021-02-17 01:00:00 7.6 0 Calma 3 Este 0 -- -- 79
2021-02-17 00:00:00 8.3 0 Calma 4 Este 0 -- -- 77
2021-02-16 23:00:00 8.9 2 Sudeste 5 Sudoeste 0 -- -- 75
2021-02-16 22:00:00 10.1 2 Sur 6 Noroeste 0 -- -- 72
2021-02-16 21:00:00 11.1 3 Oeste 4 Sudoeste 0 -- -- 64
2021-02-16 20:00:00 11.7 2 Sudeste 5 Sudoeste 0 -- -- 60
2021-02-16 19:00:00 12 0 Calma 6 Sur 0 -- -- 57
2021-02-16 18:00:00 12.7 3 Norte 8 Norte 0 -- -- 55
2021-02-16 17:00:00 12.7 4 Este 16 Nordeste 0 -- -- 52
2021-02-16 16:00:00 13.1 7 Nordeste 26 Norte 0 -- -- 50
2021-02-16 15:00:00 17.5 6 Noroeste 46 Sudoeste 0 -- -- 32
2021-02-16 14:00:00 17.3 16 Sudoeste 54 Sudoeste 0 -- -- 24
2021-02-16 13:00:00 17.1 21 Sudoeste 42 Sudoeste 0 -- -- 23
2021-02-16 12:00:00 14.5 8 Sudeste 40 Sudeste 0 -- -- 32
2021-02-16 11:00:00 13.3 12 Sudeste 40 Sudeste 0 -- -- 37
2021-02-16 10:00:00 12.4 11 Este 42 Sudeste 0 -- -- 40
2021-02-16 09:00:00 12.2 8 Nordeste 33 Sudoeste 0 -- -- 40
2021-02-16 08:00:00 11.6 6 Sur 23 Sudeste 0 -- -- 42
2021-02-16 07:00:00 11.4 5 Oeste 30 Este 0 -- -- 43
2021-02-16 06:00:00 11.6 5 Nordeste 19 Sur 0 -- -- 42
2021-02-16 05:00:00 12 4 Sudoeste 23 Sudeste 0 -- -- 41
2021-02-16 04:00:00 12.3 7 Sudeste 35 Este 0 -- -- 42
2021-02-16 03:00:00 12.5 14 Este 28 Este 0 -- -- 42
2021-02-16 02:00:00 12.4 5 Norte 22 Este 0 -- -- 43
2021-02-16 01:00:00 12.5 9 Sudeste 33 Sur 0 -- -- 43
2021-02-16 00:00:00 12.3 10 Sudeste 31 Oeste 0 -- -- 44
2021-02-15 23:00:00 12.4 6 Sudoeste 31 Sudeste 0 -- -- 43
2021-02-15 22:00:00 12.4 10 Sudoeste 27 Sur 0 -- -- 43
2021-02-15 21:00:00 12.8 10 Sudoeste 41 Sudoeste 0 -- -- 40
2021-02-15 20:00:00 12.7 10 Sudoeste 30 Sudoeste 0 -- -- 41
2021-02-15 19:00:00 12.9 11 Sudoeste 26 Sudoeste 0 -- -- 41
2021-02-15 18:00:00 13.9 8 Sur 25 Sudoeste 0 -- -- 36
2021-02-15 17:00:00 14.9 6 Este 31 Sudeste 0 -- -- 31
2021-02-15 16:00:00 15.2 11 Sudeste 40 Sudeste 0 -- -- 32
2021-02-15 15:00:00 15.2 13 Sudeste 36 Sudeste 0 -- -- 31
2021-02-15 14:00:00 14.9 13 Sudeste 36 Sudeste 0 -- -- 32
2021-02-15 13:00:00 13.9 11 Sudeste 29 Este 0 -- -- 35
2021-02-15 12:00:00 14 13 Sudeste 39 Sudeste 0 -- -- 34
2021-02-15 11:00:00 12.7 8 Sudeste 22 Sudeste 0 -- -- 39
2021-02-15 10:00:00 11 8 Sudoeste 21 Sudoeste 0 -- -- 45
2021-02-15 09:00:00 10.2 8 Sur 28 Sudoeste 0 -- -- 47
2021-02-15 08:00:00 9.9 7 Sur 24 Sudeste 0 -- -- 48
2021-02-15 07:00:00 9.9 7 Sudeste 23 Sudeste 0 -- -- 48
2021-02-15 06:00:00 10.4 12 Sudeste 23 Sudeste 0 -- -- 46
2021-02-15 05:00:00 10.5 8 Sudeste 30 Sudeste 0 -- -- 46
2021-02-15 04:00:00 10.5 5 Sudoeste 27 Este 0 -- -- 47
2021-02-15 03:00:00 10.6 8 Sur 34 Sudeste 0 -- -- 48
2021-02-15 02:00:00 10.8 5 Sudeste 25 Sudeste 0 -- -- 49
2021-02-15 01:00:00 11.1 7 Sudeste 31 Este 0 -- -- 49
2021-02-15 00:00:00 11.8 9 Sur 33 Sudeste 0 -- -- 46
2021-02-14 23:00:00 12.5 10 Sudeste 31 Sudeste 0 -- -- 43
2021-02-14 22:00:00 13 9 Sur 32 Sudeste 0 -- -- 42
2021-02-14 21:00:00 13.2 8 Sur 29 Sudeste 0 -- -- 41
2021-02-14 20:00:00 13.4 9 Sur 25 Sudeste 0 -- -- 41
2021-02-14 19:00:00 13.4 4 Noroeste 21 Este 0 -- -- 42
2021-02-14 18:00:00 14.2 5 Sudeste 28 Sudeste 0 -- -- 40
2021-02-14 17:00:00 15.4 10 Sudeste 29 Este 0 -- -- 35
2021-02-14 16:00:00 16.6 9 Sudeste 33 Sudoeste 0 -- -- 30
2021-02-14 15:00:00 16.8 8 Sudeste 37 Sudeste 0 -- -- 29
2021-02-14 14:00:00 15.7 16 Sudeste 41 Sudeste 0 -- -- 33
2021-02-14 13:00:00 15 12 Sudeste 38 Sudeste 0 -- -- 36
2021-02-14 12:00:00 14.4 11 Sudeste 39 Sudeste 0 -- -- 41
2021-02-14 11:00:00 13.3 7 Sudeste 29 Sudeste 0 -- -- 47
2021-02-14 10:00:00 9.4 6 Sur 22 Sudeste 0 -- -- 76
2021-02-14 09:00:00 4.5 2 Sudeste 6 Sudeste 0 -- -- 85
2021-02-14 08:00:00 4.2 0 Calma 6 Sudoeste 0 -- -- 85
2021-02-14 07:00:00 4.3 2 Oeste 6 Sudeste 0 -- -- 84
2021-02-14 06:00:00 4.3 3 Oeste 5 Sudoeste 0 -- -- 84
2021-02-14 05:00:00 4.5 0 Calma 6 Sudeste 0 -- -- 84
2021-02-14 04:00:00 4.7 4 Sudoeste 6 Oeste 0 -- -- 84
2021-02-14 03:00:00 5 3 Sudeste 6 Este 0 -- -- 83
2021-02-14 02:00:00 5.2 0 Calma 5 Sudeste 0 -- -- 83
2021-02-14 01:00:00 5.7 0 Calma 7 Sudeste 0 -- -- 82
2021-02-14 00:00:00 6.2 2 Este 8 Sudoeste 0 -- -- 82
2021-02-13 23:00:00 6.7 0 Calma 5 Este 0 -- -- 80
2021-02-13 22:00:00 7.4 2 Este 5 Sudoeste 0 -- -- 78
2021-02-13 21:00:00 8.2 3 Sudeste 5 Sudeste 0 -- -- 75
2021-02-13 20:00:00 9.1 5 Oeste 8 Sudoeste 0 -- -- 68
2021-02-13 19:00:00 11.1 2 Noroeste 11 Este 0 -- -- 58
2021-02-13 18:00:00 12.7 4 Este 14 Nordeste 0 -- -- 52
2021-02-13 17:00:00 14.1 4 Norte 14 Norte 0 -- -- 48
2021-02-13 16:00:00 14.5 2 Este 8 Norte 0 -- -- 49
2021-02-13 15:00:00 14 4 Noroeste 8 Noroeste 0 -- -- 47
2021-02-13 14:00:00 14.2 3 Oeste 6 Norte 0 -- -- 49
2021-02-13 13:00:00 12.7 3 Noroeste 6 Este 0 -- -- 58
2021-02-13 08:00:00 6.4 0 Calma 6 Oeste 0 -- -- 84
2021-02-13 07:00:00 6.8 3 Sudeste 9 Este 0 -- -- 84
2021-02-13 06:00:00 7.2 4 Sudoeste 8 Oeste 0 -- -- 83
2021-02-13 05:00:00 7.7 0 Calma 8 Sur 0 -- -- 83
2021-02-13 04:00:00 8.3 3 Oeste 6 Sudoeste 0 -- -- 82
2021-02-13 03:00:00 8.9 0 Calma 8 Sudeste 0 -- -- 80
2021-02-13 02:00:00 9.9 0 Calma 9 Sudoeste 0 -- -- 79
2021-02-13 01:00:00 10.2 0 Calma 5 Sudoeste 0 -- -- 77
2021-02-13 00:00:00 10.5 2 Sur 6 Sudoeste 0 -- -- 73
2021-02-12 23:00:00 10.6 2 Sudoeste 21 Noroeste 0 -- -- 70
2021-02-12 22:00:00 11.3 10 Oeste 21 Oeste 0 -- -- 67
2021-02-12 21:00:00 11.2 10 Oeste 24 Sudoeste 0 -- -- 72
2021-02-12 20:00:00 11.3 12 Oeste 29 Sudoeste 0 -- -- 74
2021-02-12 19:00:00 11.4 11 Oeste 30 Oeste 0 -- -- 75
2021-02-12 18:00:00 11.5 10 Oeste 33 Oeste 0.6 -- -- 77
2021-02-12 17:00:00 11.7 14 Oeste 33 Oeste 3.8 -- -- 77
2021-02-12 16:00:00 11.7 9 Norte 28 Noroeste 2 -- -- 79
2021-02-12 15:00:00 11.8 10 Noroeste 33 Oeste 3 -- -- 79
2021-02-12 14:00:00 11.8 11 Oeste 27 Sudoeste 1.8 -- -- 76
2021-02-12 13:00:00 11.6 17 Oeste 37 Oeste 1 -- -- 75
2021-02-12 12:00:00 12.1 10 Oeste 30 Oeste 1.2 -- -- 72
2021-02-12 11:00:00 11.8 3 Sudoeste 7 Sudoeste 3.2 -- -- 82
2021-02-12 10:00:00 11.8 2 Sudeste 8 Sudeste 0.4 -- -- 81
2021-02-12 09:00:00 11.8 4 Sudeste 8 Sudoeste 0.2 -- -- 80
2021-02-12 08:00:00 12 5 Sudeste 13 Oeste 2.2 -- -- 79
2021-02-12 07:00:00 13.3 6 Oeste 33 Sudoeste 1.6 -- -- 66
2021-02-12 06:00:00 15.2 5 Sudoeste 32 Sur 0.2 -- -- 46
2021-02-12 05:00:00 16.2 11 Sur 29 Sudoeste 0 -- -- 40
2021-02-12 04:00:00 15.4 4 Sur 17 Sudeste 0 -- -- 43
2021-02-12 03:00:00 14.7 8 Sudeste 19 Sudeste 0 -- -- 46
2021-02-12 02:00:00 14.8 6 Sur 18 Nordeste 0 -- -- 45
2021-02-12 01:00:00 12.8 3 Sudeste 11 Sudoeste 0 -- -- 57
2021-02-12 00:00:00 12 4 Sur 10 Oeste 0 -- -- 62
2021-02-11 23:00:00 12.2 3 Sudoeste 9 Sur 0 -- -- 60
2021-02-11 22:00:00 13 2 Sudoeste 8 Sudoeste 0 -- -- 56
2021-02-11 21:00:00 14.2 3 Sudoeste 9 Sudoeste 0 -- -- 49
2021-02-11 20:00:00 15.3 4 Sudoeste 9 Sur 0 -- -- 44
2021-02-11 19:00:00 16.3 3 Sur 14 Sudoeste 0 -- -- 39
2021-02-11 18:00:00 17.3 5 Sudoeste 19 Sudoeste 0 -- -- 37
2021-02-11 17:00:00 18.3 3 Sur 5 Sudoeste 0 -- -- 39
2021-02-11 16:00:00 18.3 3 Sur 9 Noroeste 0 -- -- 37
2021-02-11 15:00:00 18.8 3 Sudeste 8 Oeste 0 -- -- 36
2021-02-11 14:00:00 18.3 0 Calma 12 Oeste 0 -- -- 36
2021-02-11 13:00:00 16.7 5 Oeste 11 Oeste 0 -- -- 41
2021-02-11 12:00:00 14.4 3 Sudoeste 8 Oeste 0 -- -- 45
2021-02-11 11:00:00 12.3 3 Sudoeste 10 Sudoeste 0 -- -- 63
2021-02-11 10:00:00 8.9 0 Calma 9 Sudeste 0 -- -- 71
2021-02-11 09:00:00 7.3 3 Sudoeste 6 Sudeste 0 -- -- 78
2021-02-11 08:00:00 5.6 3 Oeste 6 Sudeste 0 -- -- 82
2021-02-11 07:00:00 4.8 2 Noroeste 7 Sudoeste 0 -- -- 83
2021-02-11 06:00:00 4.8 3 Sudoeste 8 Sudoeste 0 -- -- 83
2021-02-11 05:00:00 4.6 3 Sudeste 6 Sudoeste 0 -- -- 83
2021-02-11 04:00:00 4.8 4 Este 8 Oeste 0 -- -- 82
2021-02-11 03:00:00 5.2 2 Sudeste 4 Sudeste 0 -- -- 82
2021-02-11 02:00:00 5.7 0 Calma -- -- 0 -- -- 79
2021-02-11 01:00:00 6.4 0 Calma 7 Sudoeste 0 -- -- 77
2021-02-11 00:00:00 7.6 0 Calma 5 Sudoeste 0 -- -- 73
2021-02-10 23:00:00 8.1 3 Sudoeste 8 Oeste 0 -- -- 73
2021-02-10 22:00:00 8.7 3 Sudoeste 5 Sudoeste 0 -- -- 66
2021-02-10 21:00:00 9.7 3 Sur 5 Oeste 0 -- -- 60
2021-02-10 20:00:00 10.2 2 Sudoeste 14 Sudoeste 0 -- -- 58
2021-02-10 19:00:00 10.4 5 Oeste 12 Sudoeste 0 -- -- 56
2021-02-10 18:00:00 10.6 2 Sudeste 6 Este 0 -- -- 55
2021-02-10 17:00:00 11.1 3 Sudeste 8 Sudeste 0 -- -- 53
2021-02-10 16:00:00 10.5 3 Sudeste 8 Sur 0 -- -- 58
2021-02-10 15:00:00 10.1 3 Este 9 Oeste 0 -- -- 58
2021-02-10 14:00:00 10 3 Norte 10 Sudeste 0 -- -- 57
2021-02-10 13:00:00 9.7 3 Sur 15 Oeste 0.2 -- -- 56
2021-02-10 12:00:00 9.9 8 Oeste 30 Sudoeste 0 -- -- 49
2021-02-10 11:00:00 9.5 6 Sudoeste 19 Oeste 0 -- -- 47
2021-02-10 10:00:00 8.7 5 Sudoeste 15 Oeste 0 -- -- 55
2021-02-10 09:00:00 7.8 5 Sudeste 11 Sur 0.2 -- -- 68
2021-02-10 08:00:00 7.8 0 Calma 11 Sudoeste 0 -- -- 64
2021-02-10 07:00:00 8.4 6 Sudoeste 18 Sudoeste 0 -- -- 59
2021-02-10 06:00:00 8.8 3 Sudoeste 7 Sur 0 -- -- 53
2021-02-10 05:00:00 8.6 4 Sudeste 11 Sudoeste 0 -- -- 49
2021-02-10 04:00:00 8.8 4 Oeste 12 Sudoeste 0 -- -- 45
2021-02-10 03:00:00 9 5 Sudoeste 13 Sudoeste 0 -- -- 43
2021-02-10 02:00:00 9.5 5 Sur 17 Sur 0 -- -- 39
2021-02-10 01:00:00 9.9 6 Sudeste 22 Sudoeste 0 -- -- 41
2021-02-10 00:00:00 10.3 9 Sudoeste 34 Sudoeste 0 -- -- 40
2021-02-09 23:00:00 10.6 6 Sur 26 Sur 0 -- -- 39
2021-02-09 22:00:00 9.7 4 Sur 15 Sudoeste 0 -- -- 43
2021-02-09 21:00:00 9.4 4 Sur 16 Sur 0 -- -- 46
2021-02-09 20:00:00 9.9 5 Sudeste 22 Sudeste 0 -- -- 40
2021-02-09 19:00:00 10.7 8 Sudoeste 27 Sur 0 -- -- 36
2021-02-09 18:00:00 10.8 7 Este 26 Noroeste 0 -- -- 41
2021-02-09 17:00:00 11.8 11 Oeste 32 Sudoeste 0 -- -- 40
2021-02-09 16:00:00 10.8 6 Norte 24 Sudoeste 0.4 -- -- 59
2021-02-09 15:00:00 10.7 3 Norte 17 Sudoeste 1.2 -- -- 65
2021-02-09 14:00:00 11.2 7 Sur 25 Sudoeste 0.6 -- -- 54
2021-02-09 13:00:00 12.3 9 Sur 32 Este 0 -- -- 41
2021-02-09 12:00:00 12.9 9 Sur 29 Sudoeste 0 -- -- 37
2021-02-09 11:00:00 12.2 11 Sur 35 Sudoeste 0 -- -- 38
2021-02-09 10:00:00 11.1 6 Sudeste 24 Este 0 -- -- 45
2021-02-09 09:00:00 11.4 6 Sur 41 Sur 0 -- -- 44
2021-02-09 08:00:00 10.8 5 Norte 29 Sudoeste 0 -- -- 43
2021-02-09 07:00:00 10.6 8 Sudoeste 23 Sudoeste 0 -- -- 43
2021-02-09 06:00:00 10.9 5 Sur 39 Sudoeste 0 -- -- 49
2021-02-09 05:00:00 10.1 5 Nordeste 22 Sur 0 -- -- 50
2021-02-09 04:00:00 8.6 0 Calma 8 Sudoeste 0 -- -- 60
2021-02-09 03:00:00 8.9 6 Sudoeste 8 Sur 0 -- -- 58
2021-02-09 02:00:00 7.7 0 Calma 12 Sudeste 0 -- -- 76
2021-02-09 01:00:00 7.5 4 Este 8 Este 0 -- -- 79
2021-02-09 00:00:00 8 2 Norte 4 Sur 0 -- -- 80
2021-02-08 23:00:00 8.4 2 Sudoeste 6 Sudoeste 0 -- -- 78
2021-02-08 22:00:00 9.1 3 Sur 6 Noroeste 0 -- -- 76
2021-02-08 21:00:00 9.5 3 Sudoeste 8 Sur 0 -- -- 73
2021-02-08 20:00:00 8.9 3 Sur 8 Sudeste 0 -- -- 78
2021-02-08 19:00:00 9.3 3 Sudeste 8 Sur 0 -- -- 77
2021-02-08 18:00:00 9.7 4 Sudoeste 9 Sudeste 0 -- -- 69
2021-02-08 17:00:00 10.6 4 Sudeste 7 Sudeste 0.2 -- -- 64
2021-02-08 16:00:00 11.7 3 Sudeste 21 Noroeste 0.6 -- -- 56
2021-02-08 15:00:00 14.4 3 Nordeste 13 Oeste 0 -- -- 44
2021-02-08 14:00:00 12.9 5 Oeste 13 Sudoeste 0 -- -- 50
2021-02-08 13:00:00 11.6 4 Este 12 Este 0 -- -- 71
2021-02-08 12:00:00 9.6 5 Sudeste 8 Sudeste 0.2 -- -- 82
2021-02-08 11:00:00 9 3 Sudeste 8 Sudeste 1.4 -- -- 81
2021-02-08 10:00:00 9 5 Sudeste 9 Sudeste 2.4 -- -- 80
2021-02-08 09:00:00 9.6 0 Calma 10 Oeste 0.4 -- -- 71
2021-02-08 08:00:00 10 3 Oeste 8 Oeste 0 -- -- 59
2021-02-08 07:00:00 9.7 4 Sur 16 Sudoeste 0 -- -- 60
2021-02-08 06:00:00 9.3 4 Sudoeste 11 Sudoeste 0.4 -- -- 63
2021-02-08 05:00:00 9.7 4 Sudoeste 19 Oeste 0.2 -- -- 59
2021-02-08 04:00:00 9.6 3 Sudeste 10 Sudeste 0 -- -- 60
2021-02-08 03:00:00 9.8 5 Oeste 21 Sudoeste 0 -- -- 53
2021-02-08 02:00:00 9.2 5 Sur 14 Sur 0 -- -- 56
2021-02-08 01:00:00 8.1 4 Sudoeste 8 Sudoeste 0 -- -- 62
2021-02-08 00:00:00 8.2 4 Sudeste 14 Sur 0 -- -- 62
2021-02-07 23:00:00 8.1 3 Sudeste 10 Sudeste 0.2 -- -- 65
2021-02-07 22:00:00 7.8 3 Sudeste 13 Oeste 0.6 -- -- 70
2021-02-07 21:00:00 8.5 6 Sudoeste 21 Sudoeste 0.4 -- -- 59
2021-02-07 20:00:00 8.1 2 Sudeste 5 Sudoeste 0 -- -- 58
2021-02-07 19:00:00 8.7 0 Calma 8 Oeste 0 -- -- 60
2021-02-07 18:00:00 9.8 3 Oeste 12 Oeste 0 -- -- 45
2021-02-07 17:00:00 10.8 5 Oeste 14 Sudoeste 0 -- -- 36
2021-02-07 16:00:00 11.3 3 Este 8 Este 0 -- -- 41
2021-02-07 15:00:00 11.3 2 Sudeste 9 Oeste 0 -- -- 46
2021-02-07 14:00:00 10.4 3 Sudeste 12 Sur 0 -- -- 46
2021-02-07 13:00:00 8.9 5 Oeste 13 Oeste 0 -- -- 50
2021-02-07 12:00:00 7.7 3 Sudeste 6 Sur 0 -- -- 68
2021-02-07 11:00:00 6.8 2 Sudeste 6 Sudeste 0 -- -- 77
2021-02-07 10:00:00 6.3 3 Sudeste 6 Sudeste 0 -- -- 78
2021-02-07 09:00:00 5.7 2 Sudeste 7 Este 0 -- -- 80
2021-02-07 08:00:00 5.4 5 Sudeste 9 Oeste 0 -- -- 81
2021-02-07 07:00:00 5.2 7 Oeste 14 Oeste 0 -- -- 82
2021-02-07 06:00:00 5.1 3 Oeste 10 Oeste 0 -- -- 82
2021-02-07 05:00:00 4.9 2 Sur 8 Noroeste 0 -- -- 82
2021-02-07 04:00:00 5.1 2 Sur 15 Oeste 0.2 -- -- 79
2021-02-07 03:00:00 4.9 5 Sudoeste 11 Oeste 0.2 -- -- 82
2021-02-07 02:00:00 5.1 2 Sur 7 Sudeste 0 -- -- 80
2021-02-07 01:00:00 5.7 6 Sudoeste 14 Oeste 0 -- -- 75
2021-02-07 00:00:00 6.1 8 Sudoeste 12 Sudoeste 0.6 -- -- 75
2021-02-06 23:00:00 6.4 8 Sudoeste 19 Oeste 0.4 -- -- 75
2021-02-06 22:00:00 6.7 9 Sudoeste 23 Oeste 0.8 -- -- 75
2021-02-06 21:00:00 7.1 10 Sudoeste 16 Sudoeste 0.8 -- -- 77
2021-02-06 20:00:00 7.4 6 Oeste 19 Oeste 1.2 -- -- 78
2021-02-06 19:00:00 7.7 5 Oeste 15 Sudoeste 0.4 -- -- 77
2021-02-06 18:00:00 7.8 3 Oeste 27 Oeste 0.2 -- -- 74
2021-02-06 17:00:00 8 13 Oeste 32 Sudoeste 2.2 -- -- 74
2021-02-06 16:00:00 8.8 13 Oeste 28 Oeste 2 -- -- 79
2021-02-06 15:00:00 9.1 11 Noroeste 31 Oeste 4.2 -- -- 80
2021-02-06 14:00:00 9.7 12 Noroeste 57 Sudoeste 9.8 -- -- 76
2021-02-06 13:00:00 10.6 6 Oeste 13 Noroeste 4.2 -- -- 83
2021-02-06 12:00:00 10.6 0 Calma 3 Este 0.6 -- -- 84
2021-02-06 11:00:00 10.3 0 Calma 3 Sudeste 1.2 -- -- 84
2021-02-06 10:00:00 10.2 0 Calma 5 Este 0.8 -- -- 83
2021-02-06 09:00:00 10.2 2 Sudeste 5 Sudoeste 0 -- -- 84
2021-02-06 08:00:00 10.1 0 Calma 5 Norte 0 -- -- 83
2021-02-06 07:00:00 10.2 0 Calma 5 Norte 0 -- -- 83
2021-02-06 06:00:00 10.3 0 Calma 9 Este 0 -- -- 83
2021-02-06 05:00:00 10.3 3 Nordeste 10 Nordeste 0 -- -- 83
2021-02-06 04:00:00 10.1 4 Sudoeste 6 Oeste 0 -- -- 84
2021-02-06 03:00:00 10.1 2 Sudoeste 7 Este 0 -- -- 84
2021-02-06 02:00:00 10.1 3 Sudeste 8 Sudeste 0 -- -- 84
2021-02-06 01:00:00 10.1 3 Sudoeste 6 Sudoeste 0 -- -- 84
2021-02-06 00:00:00 10 5 Sudeste 12 Norte 0 -- -- 85
2021-02-05 23:00:00 10 3 Nordeste 9 Nordeste 0 -- -- 85
2021-02-05 22:00:00 10.1 3 Nordeste 12 Nordeste 0 -- -- 85
2021-02-05 21:00:00 10.1 3 Nordeste 9 Nordeste 0 -- -- 85
2021-02-05 20:00:00 10.2 4 Nordeste 12 Nordeste 0 -- -- 85
2021-02-05 19:00:00 10.2 5 Nordeste 14 Nordeste 0 -- -- 84
2021-02-05 18:00:00 10.4 4 Nordeste 17 Este 0 -- -- 84
2021-02-05 17:00:00 10.9 4 Nordeste 14 Nordeste 0 -- -- 83
2021-02-05 16:00:00 11.6 3 Nordeste 11 Nordeste 0 -- -- 79
2021-02-05 15:00:00 12.1 4 Nordeste 13 Este 0 -- -- 76
2021-02-05 14:00:00 12.3 3 Nordeste 15 Oeste 0 -- -- 75
2021-02-05 13:00:00 12.3 3 Norte 9 Norte 0 -- -- 77
2021-02-05 12:00:00 11.2 4 Oeste 6 Oeste 0.2 -- -- 81
2021-02-05 11:00:00 10.9 2 Noroeste 4 Sudeste 0 -- -- 82
2021-02-05 10:00:00 10.6 2 Este 6 Sudeste 0 -- -- 83
2021-02-05 09:00:00 10.3 3 Sudeste 9 Oeste 0 -- -- 83
2021-02-05 08:00:00 10.2 2 Sudoeste 8 Oeste 0 -- -- 83
2021-02-05 07:00:00 10.2 4 Sudeste 9 Sur 0.6 -- -- 83
2021-02-05 06:00:00 10.3 3 Sudeste 5 Sudeste 0 -- -- 82
2021-02-05 05:00:00 10.4 2 Este 6 Norte 0 -- -- 82
2021-02-05 04:00:00 10.5 2 Oeste 4 Noroeste 0 -- -- 80
2021-02-05 03:00:00 10.5 2 Noroeste 6 Norte 0 -- -- 80
2021-02-05 02:00:00 10.7 0 Calma 3 Noroeste 0 -- -- 78
2021-02-05 01:00:00 10.8 0 Calma 8 Sudoeste 0 -- -- 75
2021-02-05 00:00:00 11 3 Sudoeste 12 Oeste 0 -- -- 71
2021-02-04 23:00:00 11.2 9 Oeste 22 Oeste 0 -- -- 71
2021-02-04 22:00:00 11.8 8 Oeste 16 Sudoeste 0 -- -- 74
2021-02-04 21:00:00 11.8 5 Oeste 8 Oeste 0 -- -- 77
2021-02-04 20:00:00 12.3 3 Norte 9 Nordeste 0.4 -- -- 74
2021-02-04 19:00:00 13 4 Nordeste 12 Norte 0 -- -- 64
2021-02-04 18:00:00 13.4 3 Este 16 Nordeste 0 -- -- 60
2021-02-04 17:00:00 14.1 7 Nordeste 19 Este 0 -- -- 54
2021-02-04 16:00:00 16.2 5 Norte 12 Norte 0 -- -- 47
2021-02-04 15:00:00 15.6 3 Oeste 5 Oeste 0 -- -- 49
2021-02-04 14:00:00 14.6 4 Oeste 6 Sudoeste 0 -- -- 56
2021-02-04 13:00:00 14.1 2 Sudoeste 6 Sudoeste 0 -- -- 57
2021-02-04 12:00:00 13.4 2 Sudeste 8 Sudoeste 0 -- -- 60
2021-02-04 11:00:00 12.9 5 Sudoeste 15 Oeste 0 -- -- 64
2021-02-04 10:00:00 12.6 3 Sur 5 Sudoeste 0 -- -- 62
2021-02-04 09:00:00 12.3 2 Este 5 Este 0 -- -- 61
2021-02-04 08:00:00 12.5 0 Calma 8 Este 0 -- -- 55
2021-02-04 07:00:00 12.5 3 Oeste 6 Oeste 0 -- -- 57
2021-02-04 06:00:00 12.9 3 Sur 11 Sudoeste 0 -- -- 58
2021-02-04 05:00:00 13.2 2 Sur 10 Sudoeste 0 -- -- 51
2021-02-04 04:00:00 13.7 8 Sudoeste 14 Sudoeste 0 -- -- 48
2021-02-04 03:00:00 13 4 Sudoeste 11 Sudoeste 0 -- -- 59
2021-02-04 02:00:00 12.2 8 Sudoeste 12 Sudoeste 0 -- -- 66
2021-02-04 01:00:00 12.1 4 Sudoeste 14 Sudoeste 0.4 -- -- 66
2021-02-04 00:00:00 12.3 10 Sudoeste 15 Sudoeste 0 -- -- 66
2021-02-03 23:00:00 13.3 3 Sur 23 Sur 0.4 -- -- 55
2021-02-03 22:00:00 14.6 4 Este 21 Sudoeste 0 -- -- 39
2021-02-03 21:00:00 14.1 4 Sur 15 Sudeste 0 -- -- 45
2021-02-03 20:00:00 13.7 4 Sudeste 13 Sudeste 0 -- -- 43
2021-02-03 19:00:00 13.3 2 Norte 7 Oeste 0 -- -- 49
2021-02-03 18:00:00 13.8 3 Sur 9 Este 0 -- -- 48
2021-02-03 17:00:00 14.6 4 Sudoeste 17 Norte 0 -- -- 46
2021-02-03 16:00:00 15.2 5 Sudeste 18 Noroeste 0 -- -- 48
2021-02-03 15:00:00 17.7 4 Sudoeste 20 Oeste 0 -- -- 25
2021-02-03 14:00:00 18.4 9 Sudoeste 26 Sudoeste 0 -- -- 24
2021-02-03 13:00:00 17.9 10 Sudoeste 28 Sudoeste 0 -- -- 28
2021-02-03 12:00:00 18.2 9 Oeste 26 Sudoeste 0 -- -- 31
2021-02-03 11:00:00 16.4 8 Sudoeste 40 Oeste 0 -- -- 38
2021-02-03 10:00:00 15.9 11 Oeste 39 Oeste 0 -- -- 38
2021-02-03 09:00:00 15.9 11 Sudoeste 36 Sudoeste 0 -- -- 38
2021-02-03 08:00:00 15.6 12 Sudoeste 36 Sudoeste 0 -- -- 39
2021-02-03 07:00:00 15.7 8 Sudoeste 42 Oeste 0 -- -- 39
2021-02-03 06:00:00 16.1 13 Sudoeste 63 Sur 0 -- -- 37
2021-02-03 05:00:00 16.4 15 Sudoeste 45 Sur 0 -- -- 35
2021-02-03 04:00:00 16.2 17 Sudoeste 49 Sur 0 -- -- 34
2021-02-03 03:00:00 14.6 9 Sur 35 Sudeste 0 -- -- 41
2021-02-03 02:00:00 15.8 13 Sur 61 Sur 0 -- -- 36
2021-02-03 01:00:00 16.2 16 Sur 44 Sur 0 -- -- 34
2021-02-03 00:00:00 15.9 8 Sur 39 Sudoeste 0 -- -- 40
2021-02-02 23:00:00 15.8 9 Sur 22 Sudeste 0 -- -- 40
2021-02-02 22:00:00 15.9 5 Oeste 38 Sur 0 -- -- 39
2021-02-02 21:00:00 14 4 Sur 10 Sudoeste 0 -- -- 50
2021-02-02 20:00:00 13.5 5 Sur 11 Sudeste 0 -- -- 53
2021-02-02 19:00:00 13.7 4 Sudoeste 11 Sudoeste 0 -- -- 55
2021-02-02 18:00:00 14.2 5 Sudoeste 10 Oeste 0.2 -- -- 55
2021-02-02 17:00:00 15.8 5 Sur 30 Oeste 0.2 -- -- 46
2021-02-02 16:00:00 17 8 Sudoeste 28 Sur 0 -- -- 35
2021-02-02 15:00:00 17.7 14 Sudoeste 32 Sudoeste 0 -- -- 33
2021-02-02 14:00:00 18.4 18 Sudoeste 39 Sudoeste 0 -- -- 33
2021-02-02 13:00:00 17.7 7 Sur 28 Sudoeste 0 -- -- 37
2021-02-02 12:00:00 16.9 5 Sur 21 Oeste 0 -- -- 40
2021-02-02 11:00:00 16 5 Oeste 18 Sur 0 -- -- 44
2021-02-02 10:00:00 14.7 6 Sudoeste 12 Este 0 -- -- 51
2021-02-02 09:00:00 14.1 2 Sudeste 15 Sudoeste 0 -- -- 52
2021-02-02 08:00:00 14.3 5 Sur 21 Sur 0 -- -- 50
2021-02-02 07:00:00 13.6 4 Sudoeste 27 Sudoeste 0 -- -- 55
2021-02-02 06:00:00 11.7 2 Sur 15 Sur 0 -- -- 69
2021-02-02 05:00:00 10.4 3 Sudeste 8 Sudoeste 0 -- -- 78
2021-02-02 04:00:00 9.9 3 Oeste 7 Sudoeste 0 -- -- 81
2021-02-02 03:00:00 10 3 Sudeste 7 Sudoeste 0 -- -- 81
2021-02-02 02:00:00 10.6 0 Calma 8 Sudoeste 0 -- -- 80
2021-02-02 01:00:00 11.2 4 Sudeste 8 Este 0 -- -- 81
2021-02-02 00:00:00 11.6 3 Oeste 9 Sudoeste 0 -- -- 81
2021-02-01 23:00:00 11.5 3 Sur 5 Sur 0 -- -- 82
2021-02-01 22:00:00 11.6 3 Este 11 Sur 0.2 -- -- 82
2021-02-01 21:00:00 11.6 5 Sudoeste 10 Sudeste 0.4 -- -- 81
2021-02-01 20:00:00 12.2 2 Sur 5 Sur 2.4 -- -- 77
2021-02-01 19:00:00 13.2 2 Oeste 8 Sur 0.2 -- -- 65
2021-02-01 18:00:00 14.2 3 Sudeste 15 Sudoeste 0 -- -- 57
2021-02-01 17:00:00 14.7 4 Sudeste 8 Sudeste 0 -- -- 57
2021-02-01 16:00:00 14.5 3 Oeste 28 Sudoeste 0 -- -- 56
2021-02-01 15:00:00 14 8 Noroeste 32 Oeste 0 -- -- 58
2021-02-01 14:00:00 13.9 15 Oeste 40 Oeste 0 -- -- 55
2021-02-01 13:00:00 13.9 15 Noroeste 36 Oeste 0 -- -- 54
2021-02-01 12:00:00 13.8 7 Oeste 38 Sudoeste 0 -- -- 52
2021-02-01 11:00:00 13.4 9 Oeste 35 Oeste 0 -- -- 52
2021-02-01 10:00:00 13 14 Oeste 43 Oeste 0 -- -- 52
2021-02-01 09:00:00 12.9 15 Oeste 58 Sudoeste 0 -- -- 51
2021-02-01 08:00:00 13.1 17 Oeste 57 Noroeste 0 -- -- 46
2021-02-01 07:00:00 13.1 6 Noroeste 45 Oeste 0 -- -- 46
2021-02-01 06:00:00 13.1 17 Oeste 40 Oeste 0 -- -- 48
2021-02-01 05:00:00 13 11 Oeste 35 Sudoeste 0 -- -- 51
2021-02-01 04:00:00 13 12 Oeste 43 Oeste 0 -- -- 51
2021-02-01 03:00:00 12.9 13 Oeste 32 Oeste 0 -- -- 52
2021-02-01 02:00:00 12.4 9 Noroeste 46 Oeste 0.4 -- -- 58
2021-02-01 01:00:00 12.6 15 Oeste 41 Noroeste 0.6 -- -- 59
2021-02-01 00:00:00 13.8 5 Oeste 26 Oeste 0 -- -- 51
2021-01-31 23:00:00 14.2 10 Oeste 30 Noroeste 0 -- -- 51
2021-01-31 22:00:00 12.8 8 Noroeste 17 Noroeste 0 -- -- 64
2021-01-31 21:00:00 10.9 2 Oeste 8 Norte 0 -- -- 75
2021-01-31 20:00:00 11.1 4 Oeste 9 Oeste 0 -- -- 72
2021-01-31 19:00:00 11.8 2 Sudeste 8 Sudeste 0 -- -- 66
2021-01-31 18:00:00 12.8 0 Calma 8 Oeste 0.2 -- -- 64
2021-01-31 17:00:00 14.4 2 Sur 5 Sudeste 0 -- -- 58
2021-01-31 16:00:00 13.3 4 Sudeste 12 Este 0 -- -- 68
2021-01-31 15:00:00 10.9 5 Sudeste 8 Sudeste 0 -- -- 78
2021-01-31 14:00:00 10.1 4 Nordeste 8 Este 0.2 -- -- 80
2021-01-31 13:00:00 9.7 3 Sudoeste 9 Oeste 0.6 -- -- 76
2021-01-31 12:00:00 9.6 3 Sudoeste 12 Sudoeste 1.6 -- -- 70
2021-01-31 11:00:00 10.6 4 Oeste 16 Oeste 0.2 -- -- 63
2021-01-31 10:00:00 10.6 4 Sudeste 25 Sudoeste 0.4 -- -- 60
2021-01-31 09:00:00 10.9 4 Oeste 18 Oeste 0 -- -- 51
2021-01-31 08:00:00 10 4 Oeste 19 Norte 0 -- -- 59
2021-01-31 07:00:00 9.3 3 Sudeste 23 Oeste 0.2 -- -- 72
2021-01-31 06:00:00 9.6 14 Oeste 44 Oeste 0.4 -- -- 68
2021-01-31 05:00:00 10.8 17 Oeste 51 Oeste 0 -- -- 55
2021-01-31 04:00:00 10.8 20 Oeste 59 Oeste 0.2 -- -- 55
2021-01-31 03:00:00 10.7 19 Noroeste 62 Sudoeste 0 -- -- 57
2021-01-31 02:00:00 11.2 23 Oeste 59 Sudoeste 0 -- -- 53
2021-01-31 01:00:00 10.9 15 Oeste 40 Noroeste 0.2 -- -- 52
2021-01-31 00:00:00 10.2 10 Sudoeste 31 Oeste 0 -- -- 55
2021-01-30 23:00:00 10.2 4 Sudoeste 32 Oeste 0 -- -- 51
2021-01-30 22:00:00 9.7 5 Oeste 26 Sudoeste 0 -- -- 56
2021-01-30 21:00:00 9.3 5 Sudeste 15 Oeste 0.4 -- -- 63
2021-01-30 20:00:00 9.1 3 Sur 10 Oeste 0 -- -- 67
2021-01-30 19:00:00 9.3 6 Sudeste 11 Sudeste 0 -- -- 66
2021-01-30 18:00:00 9.7 4 Sur 7 Sudeste 0 -- -- 62
2021-01-30 17:00:00 11.1 2 Noroeste 16 Oeste 0 -- -- 58
2021-01-30 16:00:00 10.4 5 Sur 21 Oeste 0 -- -- 65
2021-01-30 15:00:00 10.4 8 Sur 23 Oeste 1 -- -- 61
2021-01-30 14:00:00 9.9 7 Sudoeste 35 Oeste 1.2 -- -- 63
2021-01-30 13:00:00 12.7 3 Noroeste 8 Norte 0 -- -- 54
2021-01-30 12:00:00 12.5 2 Sudoeste 19 Sudoeste 0.4 -- -- 63
2021-01-30 11:00:00 13 4 Oeste 13 Oeste 0 -- -- 57
2021-01-30 10:00:00 12.4 3 Sudeste 8 Sudoeste 0 -- -- 68
2021-01-30 09:00:00 12.5 5 Sudoeste 13 Oeste 0 -- -- 65
2021-01-30 08:00:00 12.9 4 Sudeste 17 Noroeste 0 -- -- 68
2021-01-30 07:00:00 14.1 7 Noroeste 37 Sudoeste 0.2 -- -- 44
2021-01-30 06:00:00 12.5 3 Nordeste 9 Sudeste 0.4 -- -- 72
2021-01-30 05:00:00 14.1 2 Noroeste 31 Oeste 0.4 -- -- 60
2021-01-30 04:00:00 16 8 Oeste 27 Sur 0 -- -- 39
2021-01-30 03:00:00 16.4 12 Oeste 36 Sudoeste 0 -- -- 37
2021-01-30 02:00:00 17 9 Sudoeste 46 Sudoeste 0 -- -- 37
2021-01-30 01:00:00 16.8 6 Nordeste 37 Sur 0 -- -- 41
2021-01-30 00:00:00 16.6 10 Sudeste 27 Noroeste 0 -- -- 42